nws-alerts: Checking more than four warning/county codes can delay the loading of your pages. You should use a cron job to get the data.
EllijayWeather Station Historical Data
Daily Summary for December 5, 2018 Units:  English    Metric   Both
Daily Weekly Monthly Yearly Custom
  High: Low: Average:
Temperature: 38.7 °F 25.3 °F 32 °F
Dew Point: 28.2 °F 19.4 °F 23.7 °F
Humidity: 85% 58% 71%
Wind Speed: 6mph 0mph 0.4mph
Wind Gust: 10mph - -
Wind- - WSW
Pressure: 30.45 in 30.20 in -
Precipitation: 0 in    
Historical Graphs
 
 
Tabular Data for December 5, 2018
Time Temperature Dew Point Pressure Wind Wind Speed Wind Gust Humidity Rainfall Rate (Hourly) solar
00:04 35.1 °F 28.2 °F 30.22 in Calm     76% 0 in meteobridge W/m2
00:09 35.1 °F 28.2 °F 30.21 in Calm     76% 0 in meteobridge W/m2
00:14 35.1 °F 28.2 °F 30.21 in Calm     76% 0 in meteobridge W/m2
00:19 35.2 °F 28 °F 30.21 in Calm     75% 0 in meteobridge W/m2
00:24 35.2 °F 27.9 °F 30.21 in Calm   1 mph 74% 0 in meteobridge W/m2
00:29 35.2 °F 27.9 °F 30.22 in Calm   2 mph 74% 0 in meteobridge W/m2
00:34 35.4 °F 28 °F 30.22 in Calm     74% 0 in meteobridge W/m2
00:39 35.4 °F 27.7 °F 30.21 in Calm     73% 0 in meteobridge W/m2
00:44 35.4 °F 27.7 °F 30.21 in Calm   1 mph 73% 0 in meteobridge W/m2
00:49 35.4 °F 27.3 °F 30.21 in Calm   1 mph 72% 0 in meteobridge W/m2
00:54 35.4 °F 27.3 °F 30.21 in Calm   5 mph 72% 0 in meteobridge W/m2
00:59 35.2 °F 26.8 °F 30.21 in Calm     71% 0 in meteobridge W/m2
01:04 35.2 °F 27.1 °F 30.21 in Calm   1 mph 72% 0 in meteobridge W/m2
01:09 35.1 °F 26.6 °F 30.21 in Calm   1 mph 71% 0 in meteobridge W/m2
01:14 34.7 °F 26.2 °F 30.21 in Calm     71% 0 in meteobridge W/m2
01:19 34.5 °F 26.1 °F 30.21 in Calm     71% 0 in meteobridge W/m2
01:24 34.3 °F 25.9 °F 30.21 in Calm     71% 0 in meteobridge W/m2
01:29 34 °F 25.5 °F 30.21 in Calm   2 mph 71% 0 in meteobridge W/m2
01:34 33.8 °F 25.3 °F 30.21 in Calm     71% 0 in meteobridge W/m2
01:39 33.6 °F 25.2 °F 30.21 in Calm     71% 0 in meteobridge W/m2
01:44 33.4 °F 25.3 °F 30.21 in Calm     72% 0 in meteobridge W/m2
01:49 33.3 °F 25.2 °F 30.21 in Calm     72% 0 in meteobridge W/m2
01:54 33.1 °F 25 °F 30.20 in Calm     72% 0 in meteobridge W/m2
01:59 33.1 °F 25.3 °F 30.21 in Calm     73% 0 in meteobridge W/m2
02:04 32.7 °F 25.3 °F 30.21 in Calm     74% 0 in meteobridge W/m2
02:09 32.5 °F 25.2 °F 30.21 in Calm     74% 0 in meteobridge W/m2
02:14 32.4 °F 25 °F 30.21 in Calm     74% 0 in meteobridge W/m2
02:19 32 °F 25 °F 30.21 in Calm     75% 0 in meteobridge W/m2
02:24 31.8 °F 25.2 °F 30.22 in Calm     76% 0 in meteobridge W/m2
02:29 31.5 °F 24.8 °F 30.22 in Calm     76% 0 in meteobridge W/m2
02:34 31.3 °F 24.6 °F 30.22 in Calm     76% 0 in meteobridge W/m2
02:39 31.3 °F 24.6 °F 30.22 in Calm     76% 0 in meteobridge W/m2
02:44 30.9 °F 24.6 °F 30.22 in Calm     77% 0 in meteobridge W/m2
02:49 30.7 °F 24.4 °F 30.22 in Calm     77% 0 in meteobridge W/m2
02:54 30.6 °F 24.3 °F 30.22 in Calm     77% 0 in meteobridge W/m2
02:59 30.6 °F 24.3 °F 30.22 in Calm     77% 0 in meteobridge W/m2
03:04 30.4 °F 24.3 °F 30.22 in Calm     78% 0 in meteobridge W/m2
03:09 30.4 °F 24.3 °F 30.22 in Calm     78% 0 in meteobridge W/m2
03:14 30.4 °F 24.3 °F 30.22 in Calm     78% 0 in meteobridge W/m2
03:19 30.4 °F 24.3 °F 30.22 in Calm     78% 0 in meteobridge W/m2
03:24 30.4 °F 24.3 °F 30.22 in Calm     78% 0 in meteobridge W/m2
03:29 30.4 °F 24.3 °F 30.22 in Calm     78% 0 in meteobridge W/m2
03:34 30.2 °F 24.3 °F 30.22 in Calm     78% 0 in meteobridge W/m2
03:39 30.2 °F 24.3 °F 30.22 in Calm     78% 0 in meteobridge W/m2
03:44 30.2 °F 24.3 °F 30.22 in Calm     78% 0 in meteobridge W/m2
03:49 30 °F 24.1 °F 30.22 in Calm     78% 0 in meteobridge W/m2
03:54 30 °F 24.1 °F 30.22 in Calm     78% 0 in meteobridge W/m2
03:59 29.8 °F 23.9 °F 30.22 in Calm     78% 0 in meteobridge W/m2
04:04 29.8 °F 23.9 °F 30.22 in Calm     78% 0 in meteobridge W/m2
04:09 29.7 °F 23.7 °F 30.22 in Calm     78% 0 in meteobridge W/m2
04:14 29.7 °F 23.7 °F 30.22 in Calm     78% 0 in meteobridge W/m2
04:19 29.5 °F 23.5 °F 30.22 in Calm     78% 0 in meteobridge W/m2
04:24 29.1 °F 23.2 °F 30.22 in Calm     78% 0 in meteobridge W/m2
04:29 29.1 °F 23.2 °F 30.22 in Calm     78% 0 in meteobridge W/m2
04:34 28.9 °F 23 °F 30.22 in Calm     78% 0 in meteobridge W/m2
04:39 28.8 °F 22.8 °F 30.22 in Calm     78% 0 in meteobridge W/m2
04:44 28.6 °F 22.6 °F 30.22 in Calm     78% 0 in meteobridge W/m2
04:49 28.6 °F 22.6 °F 30.22 in Calm     78% 0 in meteobridge W/m2
04:54 28.4 °F 22.5 °F 30.22 in Calm     78% 0 in meteobridge W/m2
04:59 28.2 °F 22.3 °F 30.22 in Calm     78% 0 in meteobridge W/m2
05:04 28.2 °F 22.3 °F 30.23 in Calm     78% 0 in meteobridge W/m2
05:09 28 °F 22.1 °F 30.23 in Calm     78% 0 in meteobridge W/m2
05:14 28 °F 22.1 °F 30.23 in Calm     78% 0 in meteobridge W/m2
05:19 28 °F 22.1 °F 30.23 in Calm     78% 0 in meteobridge W/m2
05:24 28.2 °F 21.9 °F 30.23 in Calm     77% 0 in meteobridge W/m2
05:29 28.2 °F 21.9 °F 30.23 in Calm     77% 0 in meteobridge W/m2
05:34 28 °F 21.7 °F 30.23 in Calm     77% 0 in meteobridge W/m2
05:39 28 °F 21.7 °F 30.23 in Calm     77% 0 in meteobridge W/m2
05:44 28 °F 21.7 °F 30.23 in Calm     77% 0 in meteobridge W/m2
05:49 28 °F 21.7 °F 30.23 in Calm     77% 0 in meteobridge W/m2
05:54 27.9 °F 21.6 °F 30.24 in Calm     77% 0 in meteobridge W/m2
05:59 27.9 °F 21.6 °F 30.24 in Calm     77% 0 in meteobridge W/m2
06:04 27.9 °F 21.6 °F 30.24 in Calm     77% 0 in meteobridge W/m2
06:09 27.7 °F 21 °F 30.24 in Calm     76% 0 in meteobridge W/m2
06:14 27.9 °F 21.2 °F 30.24 in Calm     76% 0 in meteobridge W/m2
06:19 27.7 °F 21 °F 30.25 in Calm     76% 0 in meteobridge W/m2
06:24 27.7 °F 21 °F 30.25 in Calm     76% 0 in meteobridge W/m2
06:29 27.7 °F 21 °F 30.25 in Calm     76% 0 in meteobridge W/m2
06:34 27.7 °F 21 °F 30.25 in Calm     76% 0 in meteobridge W/m2
06:39 27.5 °F 20.7 °F 30.26 in Calm     75% 0 in meteobridge W/m2
06:44 27.5 °F 20.7 °F 30.26 in Calm     75% 0 in meteobridge W/m2
06:49 27.5 °F 20.7 °F 30.26 in Calm     75% 0 in meteobridge W/m2
06:54 27.5 °F 20.7 °F 30.26 in Calm     75% 0 in meteobridge W/m2
06:59 27.3 °F 20.5 °F 30.26 in Calm     75% 0 in meteobridge W/m2
07:04 27.3 °F 20.5 °F 30.26 in Calm     75% 0 in meteobridge W/m2
07:09 27.3 °F 20.5 °F 30.26 in Calm     75% 0 in meteobridge W/m2
07:14 27.1 °F 20.3 °F 30.27 in Calm     75% 0 in meteobridge W/m2
07:19 27.1 °F 20.3 °F 30.27 in Calm     75% 0 in meteobridge W/m2
07:24 27.1 °F 20.3 °F 30.27 in Calm     75% 0 in meteobridge W/m2
07:29 27 °F 20.1 °F 30.27 in Calm     75% 0 in meteobridge W/m2
07:34 27 °F 20.1 °F 30.27 in Calm     75% 0 in meteobridge W/m2
07:39 27 °F 20.1 °F 30.27 in Calm     75% 0 in meteobridge W/m2
07:44 26.8 °F 19.9 °F 30.27 in Calm     75% 0 in meteobridge W/m2
07:49 26.8 °F 19.9 °F 30.27 in Calm     75% 0 in meteobridge W/m2
07:54 26.8 °F 19.6 °F 30.27 in Calm     74% 0 in meteobridge W/m2
07:59 26.8 °F 19.6 °F 30.27 in Calm     74% 0 in meteobridge W/m2
08:04 26.8 °F 19.6 °F 30.27 in Calm     74% 0 in meteobridge W/m2
08:09 27 °F 19.4 °F 30.27 in Calm     73% 0 in meteobridge W/m2
08:14 27 °F 19.4 °F 30.28 in Calm     73% 0 in meteobridge W/m2
08:19 27.1 °F 19.6 °F 30.28 in Calm     73% 0 in meteobridge W/m2
08:24 27.3 °F 19.8 °F 30.28 in Calm     73% 0 in meteobridge W/m2
08:29 27.7 °F 19.8 °F 30.28 in Calm     72% 0 in meteobridge W/m2
08:34 27.9 °F 19.9 °F 30.28 in Calm     72% 0 in meteobridge W/m2
08:39 28 °F 20.1 °F 30.29 in Calm   1 mph 72% 0 in meteobridge W/m2
08:44 28.6 °F 21.4 °F 30.29 in Calm   3 mph 74% 0 in meteobridge W/m2
08:49 29.1 °F 22.3 °F 30.29 in Calm   2 mph 75% 0 in meteobridge W/m2
08:54 29.8 °F 23.5 °F 30.29 in Calm   1 mph 77% 0 in meteobridge W/m2
08:59 30.4 °F 24.1 °F 30.30 in Calm     77% 0 in meteobridge W/m2
09:04 30.9 °F 24.8 °F 30.30 in Calm   4 mph 78% 0 in meteobridge W/m2
09:09 31.6 °F 25.5 °F 30.30 in Calm   3 mph 78% 0 in meteobridge W/m2
09:14 32 °F 25.7 °F 30.30 in Calm     77% 0 in meteobridge W/m2
09:19 32.4 °F 25.7 °F 30.30 in Calm     76% 0 in meteobridge W/m2
09:24 32.7 °F 26.1 °F 30.30 in Calm     76% 0 in meteobridge W/m2
09:29 33.3 °F 26.2 °F 30.30 in Calm   8 mph 75% 0 in meteobridge W/m2
09:34 33.6 °F 26.6 °F 30.30 in Calm   7 mph 75% 0 in meteobridge W/m2
09:39 34.2 °F 26.4 °F 30.30 in WNW 2 mph 2 mph 73% 0 in meteobridge W/m2
09:44 34.5 °F 26.4 °F 30.30 in Calm   4 mph 72% 0 in meteobridge W/m2
09:49 34.9 °F 26.8 °F 30.31 in Calm     72% 0 in meteobridge W/m2
09:54 34.5 °F 25.7 °F 30.31 in Calm   2 mph 70% 0 in meteobridge W/m2
09:59 34.5 °F 25.7 °F 30.31 in NW 2 mph 5 mph 70% 0 in meteobridge W/m2
10:04 34.5 °F 25.7 °F 30.31 in Calm   6 mph 70% 0 in meteobridge W/m2
10:09 34.9 °F 25.3 °F 30.32 in WNW 4 mph 5 mph 68% 0 in meteobridge W/m2
10:14 35.1 °F 25.9 °F 30.32 in Calm   2 mph 69% 0 in meteobridge W/m2
10:19 35.2 °F 26.1 °F 30.31 in Calm   3 mph 69% 0 in meteobridge W/m2
10:24 35.6 °F 26.4 °F 30.31 in Calm   3 mph 69% 0 in meteobridge W/m2
10:29 35.4 °F 25.5 °F 30.32 in Calm     67% 0 in meteobridge W/m2
10:34 35.4 °F 25.5 °F 30.32 in NNW 6 mph 7 mph 67% 0 in meteobridge W/m2
10:39 35.4 °F 25.9 °F 30.32 in Calm     68% 0 in meteobridge W/m2
10:44 35.6 °F 25.7 °F 30.32 in Calm     67% 0 in meteobridge W/m2
10:49 35.8 °F 26.2 °F 30.31 in Calm   1 mph 68% 0 in meteobridge W/m2
10:54 35.8 °F 25.9 °F 30.32 in NE 2.9 mph 5 mph 67% 0 in meteobridge W/m2
10:59 35.8 °F 25.9 °F 30.31 in North 4 mph 8 mph 67% 0 in meteobridge W/m2
11:04 36 °F 26.1 °F 30.32 in Calm   3 mph 67% 0 in meteobridge W/m2
11:09 36.1 °F 26.2 °F 30.32 in WNW 0.9 mph 4 mph 67% 0 in meteobridge W/m2
11:14 36.3 °F 26.4 °F 30.32 in NNE 4.9 mph 6 mph 67% 0 in meteobridge W/m2
11:19 36.3 °F 26.1 °F 30.31 in Calm   8 mph 66% 0 in meteobridge W/m2
11:24 36.3 °F 26.1 °F 30.31 in Calm   6 mph 66% 0 in meteobridge W/m2
11:29 36.3 °F 26.1 °F 30.32 in NNW 2.9 mph 3 mph 66% 0 in meteobridge W/m2
11:34 36.1 °F 26.2 °F 30.31 in Calm   1 mph 67% 0 in meteobridge W/m2
11:39 36.3 °F 26.4 °F 30.31 in Calm     67% 0 in meteobridge W/m2
11:44 36.9 °F 27.7 °F 30.32 in Calm   6 mph 69% 0 in meteobridge W/m2
11:49 36.9 °F 26.2 °F 30.31 in North 2 mph 4 mph 65% 0 in meteobridge W/m2
11:54 37 °F 26.8 °F 30.31 in NW 0.9 mph 8 mph 66% 0 in meteobridge W/m2
11:59 37 °F 26.4 °F 30.32 in NW 0.9 mph 10 mph 65% 0 in meteobridge W/m2
12:04 36.9 °F 26.2 °F 30.31 in Calm   3 mph 65% 0 in meteobridge W/m2
12:09 37 °F 26.4 °F 30.31 in NNE 0.9 mph 7 mph 65% 0 in meteobridge W/m2
12:14 37.2 °F 26.2 °F 30.31 in NNW 0.9 mph 6 mph 64% 0 in meteobridge W/m2
12:19 37.4 °F 26.4 °F 30.31 in Calm   4 mph 64% 0 in meteobridge W/m2
12:24 37.2 °F 25.7 °F 30.31 in NW 2 mph 6 mph 63% 0 in meteobridge W/m2
12:29 37.2 °F 25.7 °F 30.30 in Calm   5 mph 63% 0 in meteobridge W/m2
12:34 37.2 °F 25.7 °F 30.30 in Calm   7 mph 63% 0 in meteobridge W/m2
12:39 37.6 °F 26.1 °F 30.30 in Calm   6 mph 63% 0 in meteobridge W/m2
12:44 37.9 °F 26.4 °F 30.30 in Calm   3 mph 63% 0 in meteobridge W/m2
12:49 37.9 °F 25.3 °F 30.30 in Calm   6 mph 60% 0 in meteobridge W/m2
12:54 37.6 °F 24.6 °F 30.30 in Calm   4 mph 59% 0 in meteobridge W/m2
12:59 37.6 °F 25 °F 30.30 in Calm   7 mph 60% 0 in meteobridge W/m2
13:04 37.8 °F 25.5 °F 30.30 in SE 0.9 mph 4 mph 61% 0 in meteobridge W/m2
13:09 38.1 °F 25 °F 30.30 in Calm   4 mph 59% 0 in meteobridge W/m2
13:14 38.5 °F 25.3 °F 30.30 in Calm   3 mph 59% 0 in meteobridge W/m2
13:19 38.5 °F 25.9 °F 30.31 in Calm   5 mph 60% 0 in meteobridge W/m2
13:24 38.7 °F 25.5 °F 30.30 in Calm   5 mph 59% 0 in meteobridge W/m2
13:29 38.5 °F 25 °F 30.30 in WNW 6 mph 6 mph 58% 0 in meteobridge W/m2
13:34 38.3 °F 25.2 °F 30.30 in WNW 4.9 mph 8 mph 59% 0 in meteobridge W/m2
13:39 38.1 °F 24.6 °F 30.31 in NNE 2 mph 8 mph 58% 0 in meteobridge W/m2
13:44 38.1 °F 25 °F 30.31 in Calm   4 mph 59% 0 in meteobridge W/m2
13:49 38.5 °F 25.3 °F 30.30 in Calm   3 mph 59% 0 in meteobridge W/m2
13:54 38.5 °F 25.3 °F 30.31 in Calm   4 mph 59% 0 in meteobridge W/m2
13:59 38.5 °F 25.9 °F 30.31 in NNW 0.9 mph 4 mph 60% 0 in meteobridge W/m2
14:04 38.5 °F 25.3 °F 30.31 in WNW 2 mph 5 mph 59% 0 in meteobridge W/m2
14:09 37.9 °F 25.3 °F 30.30 in Calm   4 mph 60% 0 in meteobridge W/m2
14:14 37.9 °F 25.3 °F 30.31 in Calm   4 mph 60% 0 in meteobridge W/m2
14:19 37.9 °F 25.7 °F 30.31 in Calm   7 mph 61% 0 in meteobridge W/m2
14:24 38.1 °F 25.5 °F 30.31 in Calm   6 mph 60% 0 in meteobridge W/m2
14:29 37.8 °F 25.2 °F 30.31 in Calm   2 mph 60% 0 in meteobridge W/m2
14:34 37.2 °F 24.6 °F 30.31 in Calm   1 mph 60% 0 in meteobridge W/m2
14:39 37.4 °F 24.8 °F 30.31 in West 0.9 mph 1 mph 60% 0 in meteobridge W/m2
14:44 37.2 °F 24.6 °F 30.31 in Calm   3 mph 60% 0 in meteobridge W/m2
14:49 37 °F 24.4 °F 30.32 in NNE 2.9 mph 7 mph 60% 0 in meteobridge W/m2
14:54 36.9 °F 24.3 °F 30.32 in WSW 2.9 mph 10 mph 60% 0 in meteobridge W/m2
14:59 36.7 °F 24.4 °F 30.32 in WNW 2 mph 5 mph 61% 0 in meteobridge W/m2
15:04 37 °F 24.4 °F 30.32 in Calm   2 mph 60% 0 in meteobridge W/m2
15:09 37 °F 24.4 °F 30.32 in Calm   5 mph 60% 0 in meteobridge W/m2
15:14 36.9 °F 24.3 °F 30.32 in WNW 0.9 mph 5 mph 60% 0 in meteobridge W/m2
15:19 36.5 °F 24.3 °F 30.32 in Calm   3 mph 61% 0 in meteobridge W/m2
15:24 36.3 °F 24.1 °F 30.32 in NNW 2 mph 8 mph 61% 0 in meteobridge W/m2
15:29 36.1 °F 24.4 °F 30.33 in Calm   5 mph 62% 0 in meteobridge W/m2
15:34 36.1 °F 24.4 °F 30.33 in Calm   3 mph 62% 0 in meteobridge W/m2
15:39 36 °F 24.6 °F 30.33 in Calm   8 mph 63% 0 in meteobridge W/m2
15:44 35.8 °F 24.4 °F 30.34 in Calm   4 mph 63% 0 in meteobridge W/m2
15:49 35.8 °F 24.4 °F 30.34 in Calm   3 mph 63% 0 in meteobridge W/m2
15:54 35.4 °F 24.1 °F 30.34 in West 4 mph 4 mph 63% 0 in meteobridge W/m2
15:59 35.2 °F 24.3 °F 30.34 in NNW 2.9 mph 6 mph 64% 0 in meteobridge W/m2
16:04 35.2 °F 24.6 °F 30.34 in North 4 mph 5 mph 65% 0 in meteobridge W/m2
16:09 35.1 °F 24.1 °F 30.35 in Calm   2 mph 64% 0 in meteobridge W/m2
16:14 35.1 °F 24.4 °F 30.35 in NW 4 mph 4 mph 65% 0 in meteobridge W/m2
16:19 35.1 °F 24.4 °F 30.35 in Calm     65% 0 in meteobridge W/m2
16:24 35.1 °F 24.4 °F 30.36 in Calm   1 mph 65% 0 in meteobridge W/m2
16:29 34.9 °F 24.3 °F 30.36 in WNW 4 mph 4 mph 65% 0 in meteobridge W/m2
16:34 34.9 °F 24.3 °F 30.37 in Calm   4 mph 65% 0 in meteobridge W/m2
16:39 34.7 °F 24.4 °F 30.37 in Calm   7 mph 66% 0 in meteobridge W/m2
16:44 34.5 °F 24.3 °F 30.37 in North 2 mph 8 mph 66% 0 in meteobridge W/m2
16:49 34.5 °F 24.3 °F 30.37 in WSW 2 mph 4 mph 66% 0 in meteobridge W/m2
16:54 34.3 °F 24.1 °F 30.37 in Calm   4 mph 66% 0 in meteobridge W/m2
16:59 34.2 °F 24.1 °F 30.37 in SSW 0.9 mph 3 mph 66% 0 in meteobridge W/m2
17:04 34.2 °F 24.4 °F 30.37 in WNW 2.9 mph 4 mph 67% 0 in meteobridge W/m2
17:09 34 °F 24.3 °F 30.37 in NNW 2.9 mph 3 mph 67% 0 in meteobridge W/m2
17:14 33.8 °F 24.1 °F 30.38 in Calm   2 mph 67% 0 in meteobridge W/m2
17:19 33.6 °F 23.9 °F 30.37 in Calm   7 mph 67% 0 in meteobridge W/m2
17:24 33.6 °F 23.9 °F 30.37 in Calm   3 mph 67% 0 in meteobridge W/m2
17:29 33.6 °F 24.3 °F 30.37 in NW 2.9 mph 6 mph 68% 0 in meteobridge W/m2
17:34 33.4 °F 23.7 °F 30.38 in Calm   3 mph 67% 0 in meteobridge W/m2
17:39 33.4 °F 23.7 °F 30.38 in Calm     67% 0 in meteobridge W/m2
17:44 33.4 °F 23.7 °F 30.38 in Calm   2 mph 67% 0 in meteobridge W/m2
17:49 33.3 °F 23.5 °F 30.39 in Calm   2 mph 67% 0 in meteobridge W/m2
17:54 33.3 °F 23.5 °F 30.38 in Calm     67% 0 in meteobridge W/m2
17:59 33.3 °F 23.5 °F 30.38 in Calm   2 mph 67% 0 in meteobridge W/m2
18:04 33.3 °F 23.9 °F 30.39 in Calm     68% 0 in meteobridge W/m2
18:09 33.1 °F 23.4 °F 30.39 in Calm   2 mph 67% 0 in meteobridge W/m2
18:14 33.1 °F 23.4 °F 30.40 in Calm     67% 0 in meteobridge W/m2
18:19 33.1 °F 23.7 °F 30.40 in Calm   4 mph 68% 0 in meteobridge W/m2
18:24 33.1 °F 24.1 °F 30.40 in Calm   1 mph 69% 0 in meteobridge W/m2
18:29 32.9 °F 23.9 °F 30.40 in NNW 2.9 mph 3 mph 69% 0 in meteobridge W/m2
18:34 32.9 °F 24.3 °F 30.40 in Calm   1 mph 70% 0 in meteobridge W/m2
18:39 32.7 °F 23.7 °F 30.41 in WSW 2 mph 5 mph 69% 0 in meteobridge W/m2
18:44 32.7 °F 23.7 °F 30.41 in Calm     69% 0 in meteobridge W/m2
18:49 32.7 °F 23.4 °F 30.41 in Calm   5 mph 68% 0 in meteobridge W/m2
18:54 32.5 °F 23.2 °F 30.41 in Calm   1 mph 68% 0 in meteobridge W/m2
18:59 32.5 °F 23.5 °F 30.41 in Calm   3 mph 69% 0 in meteobridge W/m2
19:04 32.5 °F 23.5 °F 30.41 in Calm     69% 0 in meteobridge W/m2
19:09 32.5 °F 23.2 °F 30.41 in Calm     68% 0 in meteobridge W/m2
19:14 32.4 °F 23.4 °F 30.42 in WNW 4 mph 6 mph 69% 0 in meteobridge W/m2
19:19 32.4 °F 23 °F 30.42 in Calm   1 mph 68% 0 in meteobridge W/m2
19:24 32.4 °F 23.4 °F 30.42 in Calm   2 mph 69% 0 in meteobridge W/m2
19:29 32.2 °F 23.5 °F 30.42 in Calm     70% 0 in meteobridge W/m2
19:34 32 °F 23 °F 30.42 in Calm   3 mph 69% 0 in meteobridge W/m2
19:39 31.8 °F 23.2 °F 30.42 in Calm     70% 0 in meteobridge W/m2
19:44 31.6 °F 23 °F 30.42 in Calm     70% 0 in meteobridge W/m2
19:49 31.5 °F 22.8 °F 30.42 in Calm     70% 0 in meteobridge W/m2
19:54 31.3 °F 23 °F 30.42 in Calm     71% 0 in meteobridge W/m2
19:59 31.1 °F 22.8 °F 30.42 in Calm     71% 0 in meteobridge W/m2
20:04 30.9 °F 22.6 °F 30.42 in Calm     71% 0 in meteobridge W/m2
20:09 30.7 °F 22.5 °F 30.42 in Calm     71% 0 in meteobridge W/m2
20:14 30.6 °F 22.6 °F 30.42 in Calm     72% 0 in meteobridge W/m2
20:19 30.4 °F 22.5 °F 30.42 in Calm     72% 0 in meteobridge W/m2
20:24 30 °F 22.1 °F 30.42 in Calm     72% 0 in meteobridge W/m2
20:29 29.8 °F 22.3 °F 30.42 in Calm     73% 0 in meteobridge W/m2
20:34 29.7 °F 22.1 °F 30.42 in Calm     73% 0 in meteobridge W/m2
20:39 29.5 °F 21.9 °F 30.42 in Calm     73% 0 in meteobridge W/m2
20:44 29.3 °F 22.1 °F 30.42 in Calm     74% 0 in meteobridge W/m2
20:49 28.9 °F 21.7 °F 30.42 in Calm     74% 0 in meteobridge W/m2
20:54 28.8 °F 21.6 °F 30.42 in Calm     74% 0 in meteobridge W/m2
20:59 28.6 °F 21.7 °F 30.42 in Calm     75% 0 in meteobridge W/m2
21:04 28.4 °F 21.6 °F 30.42 in Calm     75% 0 in meteobridge W/m2
21:09 28.2 °F 21.4 °F 30.42 in Calm     75% 0 in meteobridge W/m2
21:14 28 °F 21.4 °F 30.42 in Calm     76% 0 in meteobridge W/m2
21:19 28 °F 21.4 °F 30.42 in Calm     76% 0 in meteobridge W/m2
21:24 28 °F 21.7 °F 30.42 in Calm     77% 0 in meteobridge W/m2
21:29 27.9 °F 21.6 °F 30.42 in Calm     77% 0 in meteobridge W/m2
21:34 27.9 °F 21.6 °F 30.42 in Calm     77% 0 in meteobridge W/m2
21:39 27.9 °F 21.6 °F 30.42 in Calm     77% 0 in meteobridge W/m2
21:44 27.7 °F 21.7 °F 30.42 in Calm     78% 0 in meteobridge W/m2
21:49 27.7 °F 21.7 °F 30.42 in Calm     78% 0 in meteobridge W/m2
21:54 27.7 °F 21.7 °F 30.43 in Calm     78% 0 in meteobridge W/m2
21:59 27.7 °F 21.7 °F 30.43 in Calm     78% 0 in meteobridge W/m2
22:04 27.5 °F 21.6 °F 30.43 in Calm     78% 0 in meteobridge W/m2
22:09 27.3 °F 21.4 °F 30.43 in Calm     78% 0 in meteobridge W/m2
22:14 27.3 °F 21.4 °F 30.43 in Calm     78% 0 in meteobridge W/m2
22:19 27.1 °F 21.2 °F 30.44 in Calm     78% 0 in meteobridge W/m2
22:24 27.1 °F 21.2 °F 30.44 in Calm     78% 0 in meteobridge W/m2
22:29 27 °F 21 °F 30.44 in Calm     78% 0 in meteobridge W/m2
22:34 27 °F 21 °F 30.44 in Calm     78% 0 in meteobridge W/m2
22:39 27 °F 21 °F 30.45 in Calm     78% 0 in meteobridge W/m2
22:44 26.8 °F 20.8 °F 30.45 in Calm     78% 0 in meteobridge W/m2
22:49 26.8 °F 20.8 °F 30.45 in Calm     78% 0 in meteobridge W/m2
22:54 26.6 °F 22.6 °F 30.45 in Calm     85% 0 in meteobridge W/m2
22:59 26.4 °F 20.5 °F 30.45 in Calm     78% 0 in meteobridge W/m2
23:03 26.4 °F 20.5 °F 30.44 in Calm     78% 0 in meteobridge W/m2
23:08 26.2 °F 20.3 °F 30.45 in Calm     78% 0 in meteobridge W/m2
23:14 26.2 °F 20.3 °F 30.45 in Calm     78% 0 in meteobridge W/m2
23:19 26.2 °F 20.3 °F 30.45 in Calm     78% 0 in meteobridge W/m2
23:24 26.1 °F 20.5 °F 30.45 in Calm     79% 0 in meteobridge W/m2
23:29 26.1 °F 20.1 °F 30.45 in Calm     78% 0 in meteobridge W/m2
23:34 25.9 °F 19.9 °F 30.45 in Calm     78% 0 in meteobridge W/m2
23:39 25.9 °F 19.9 °F 30.45 in Calm     78% 0 in meteobridge W/m2
23:44 25.7 °F 20.1 °F 30.45 in Calm     79% 0 in meteobridge W/m2
23:49 25.5 °F 19.9 °F 30.45 in Calm     79% 0 in meteobridge W/m2
23:54 25.3 °F 19.4 °F 30.45 in Calm     78% 0 in meteobridge W/m2
23:59 25.3 °F 19.4 °F 30.45 in Calm     78% 0 in meteobridge W/m2
EllijayWeather
Compliments of Weather Underground - 2.5 mb